Surface observations / UK / EGBB

Quebec | Canada | USA | France | UK | Europe | Elsewhere

Display: Info & Location for EGBB | Help decoding METAR

EGBB BIRMINGHAM AIRPORT -- UK
Raw surface observations for station EGBB
EGBB 250220Z AUTO 20005KT 170V240 9999 NCD 08/07 Q1014=
EGBB 250150Z AUTO 21007KT 9999 FEW047/// 08/07 Q1015=
EGBB 250120Z AUTO 22006KT 9999 NCD 08/07 Q1015=
EGBB 250050Z AUTO VRB03KT 9999 NCD 06/06 Q1015=
EGBB 250020Z AUTO 17003KT 9999 NCD 08/07 Q1015=
EGBB 242350Z AUTO 20004KT 9999 NCD 08/08 Q1015=
EGBB 242320Z 21005KT 170V240 CAVOK 09/08 Q1015=
EGBB 242250Z VRB03KT CAVOK 09/08 Q1014=
EGBB 242220Z 23004KT 190V270 CAVOK 09/08 Q1014=
EGBB 242150Z 22005KT 180V250 9999 FEW042 10/09 Q1014=
EGBB 242120Z 21005KT CAVOK 10/09 Q1014=
EGBB 242050Z 18004KT CAVOK 08/08 Q1014=
EGBB 242020Z VRB03KT CAVOK 09/08 Q1013=
EGBB 241950Z 21004KT 9999 FEW045 10/09 Q1013=
EGBB 241920Z 20003KT CAVOK 10/09 Q1013=
EGBB 241850Z 23003KT CAVOK 11/09 Q1013=
EGBB 241820Z 24002KT CAVOK 11/09 Q1013=
EGBB 241750Z 28004KT 250V320 9999 BKN047 12/09 Q1013=
EGBB 241720Z 29008KT 9999 BKN016 BKN043 12/10 Q1012=
EGBB 241650Z 29007KT 9999 FEW017 BKN023 12/10 Q1012=
EGBB 241620Z 29008KT 9999 VCSH BKN017 BKN030CB 12/10 Q1012=
EGBB 241550Z 30012KT 9999 4000SE -RA FEW005 BKN009 BKN023CB 13/12 Q1011 REDZ=
EGBB 241450Z 19007KT 160V220 8000 -RA FEW024 SCT036 BKN043 15/13 Q1011=
EGBB 241420Z 19007KT 9999 -RA FEW012 SCT017 BKN022 15/13 Q1011=
EGBB 241350Z 19008KT 9999 SCT014 BKN018 BKN024 15/13 Q1011=
EGBB 241320Z AUTO 19006KT 150V240 9999 BKN013/// BKN018/// 16/13 Q1011=
EGBB 241250Z 19008KT 150V220 9999 SCT012 BKN018 16/13 Q1012=
EGBB 241220Z 21007KT 170V250 9999 SCT011 15/13 Q1012=
EGBB 241150Z 19007KT 160V250 9999 BKN010 15/13 Q1012=
EGBB 241120Z 21007KT 9999 BKN009 15/13 Q1013=
EGBB 241050Z 20006KT 170V240 9999 BKN008 14/13 Q1013=
EGBB 241020Z 21006KT 170V260 9999 VCSH BKN008 BKN014 14/13 Q1013=
EGBB 240950Z 22006KT 180V260 9999 BKN008 14/13 Q1013=
EGBB 240920Z AUTO 21005KT 170V240 9999 BKN006/// OVC011/// 14/13 Q1013=
EGBB 240850Z 20006KT 160V230 9999 BKN007 14/13 Q1013=
EGBB 240820Z 20006KT 160V240 9999 BKN007 14/12 Q1013=
EGBB 240750Z 19005KT 160V250 9999 FEW008 BKN010 13/12 Q1013=
EGBB 240720Z 19006KT 160V230 9999 SCT007 13/12 Q1013=
EGBB 240650Z 19004KT 160V220 9999 BKN008 13/12 Q1013=
EGBB 240620Z 21006KT 180V240 9999 BKN007 BKN013 13/12 Q1012=
EGBB 240550Z AUTO 20006KT 170V230 9999 FEW008/// SCT012/// 13/12 Q1012=
EGBB 240520Z AUTO 21006KT 170V240 9999 SCT010/// BKN016/// 13/12 Q1013=
EGBB 240450Z 20006KT 170V230 9999 FEW007 BKN024 13/12 Q1013=
EGBB 240420Z 20005KT 160V240 9999 -RA BKN009 13/12 Q1012=
EGBB 240350Z 20006KT 9999 -RA SCT005 BKN009 13/12 Q1012=
EGBB 240320Z 21006KT 180V250 7000 BKN008 13/13 Q1013=
EGBB 240250Z 20006KT 180V240 9999 -RA BKN008 13/13 Q1013=
EGBB 240220Z AUTO 20006KT 170V230 9999 BKN006/// OVC022/// 14/12 Q1013=